sensor_id;sensor_type;location;lat;lon;timestamp;temperature;humidity
5222;DHT22;2630;52.036;8.514;2023-03-01T00:00:14;-2.20;99.90
5222;DHT22;2630;52.036;8.514;2023-03-01T00:05:06;-2.40;99.90
5222;DHT22;2630;52.036;8.514;2023-03-01T00:07:32;-2.40;99.90
5222;DHT22;2630;52.036;8.514;2023-03-01T00:09:58;-2.30;99.90
5222;DHT22;2630;52.036;8.514;2023-03-01T00:12:24;-2.30;99.90
5222;DHT22;2630;52.036;8.514;2023-03-01T00:14:49;-2.30;99.90
5222;DHT22;2630;52.036;8.514;2023-03-01T00:17:15;-2.30;99.90
5222;DHT22;2630;52.036;8.514;2023-03-01T00:19:40;-2.30;99.90
5222;DHT22;2630;52.036;8.514;2023-03-01T00:22:06;-2.30;99.90
5222;DHT22;2630;52.036;8.514;2023-03-01T00:24:31;-2.40;99.90
5222;DHT22;2630;52.036;8.514;2023-03-01T00:26:57;-2.40;99.90
5222;DHT22;2630;52.036;8.514;2023-03-01T00:29:24;-2.40;99.90
5222;DHT22;2630;52.036;8.514;2023-03-01T00:31:50;-2.40;99.90
5222;DHT22;2630;52.036;8.514;2023-03-01T00:34:15;-2.40;99.90
5222;DHT22;2630;52.036;8.514;2023-03-01T00:36:41;-2.50;99.90
5222;DHT22;2630;52.036;8.514;2023-03-01T00:39:11;-2.40;99.90
5222;DHT22;2630;52.036;8.514;2023-03-01T00:41:37;-2.50;99.90
5222;DHT22;2630;52.036;8.514;2023-03-01T00:44:03;-2.50;99.90
5222;DHT22;2630;52.036;8.514;2023-03-01T00:46:28;-2.50;99.90
5222;DHT22;2630;52.036;8.514;2023-03-01T00:48:55;-2.60;99.90
5222;DHT22;2630;52.036;8.514;2023-03-01T00:51:24;-2.60;99.90
5222;DHT22;2630;52.036;8.514;2023-03-01T00:53:52;-2.70;99.90
5222;DHT22;2630;52.036;8.514;2023-03-01T00:56:18;-2.60;99.90
5222;DHT22;2630;52.036;8.514;2023-03-01T00:58:44;-2.60;99.90
5222;DHT22;2630;52.036;8.514;2023-03-01T01:01:18;-2.60;99.90
5222;DHT22;2630;52.036;8.514;2023-03-01T01:03:49;-2.70;99.90
5222;DHT22;2630;52.036;8.514;2023-03-01T01:06:17;-2.70;99.90
5222;DHT22;2630;52.036;8.514;2023-03-01T01:08:43;-2.70;99.90
5222;DHT22;2630;52.036;8.514;2023-03-01T01:11:10;-2.70;99.90
5222;DHT22;2630;52.036;8.514;2023-03-01T01:13:36;-2.70;99.90
5222;DHT22;2630;52.036;8.514;2023-03-01T01:16:02;-2.70;99.90
5222;DHT22;2630;52.036;8.514;2023-03-01T01:18:27;-2.80;99.90
5222;DHT22;2630;52.036;8.514;2023-03-01T01:23:19;-2.70;99.90
5222;DHT22;2630;52.036;8.514;2023-03-01T01:25:44;-2.70;99.90
5222;DHT22;2630;52.036;8.514;2023-03-01T01:28:10;-2.80;99.90
5222;DHT22;2630;52.036;8.514;2023-03-01T01:30:35;-2.80;99.90
5222;DHT22;2630;52.036;8.514;2023-03-01T01:33:01;-2.80;99.90
5222;DHT22;2630;52.036;8.514;2023-03-01T01:35:27;-2.90;99.90
5222;DHT22;2630;52.036;8.514;2023-03-01T01:37:53;-2.90;99.90
5222;DHT22;2630;52.036;8.514;2023-03-01T01:40:19;-2.90;99.90
5222;DHT22;2630;52.036;8.514;2023-03-01T01:42:44;-2.90;99.90
5222;DHT22;2630;52.036;8.514;2023-03-01T01:45:36;-2.90;99.90
5222;DHT22;2630;52.036;8.514;2023-03-01T01:48:10;-3.00;99.90
5222;DHT22;2630;52.036;8.514;2023-03-01T01:50:39;-3.00;99.90
5222;DHT22;2630;52.036;8.514;2023-03-01T01:53:15;-3.00;99.90
5222;DHT22;2630;52.036;8.514;2023-03-01T01:55:45;-3.00;99.90
5222;DHT22;2630;52.036;8.514;2023-03-01T01:58:15;-3.00;99.90
5222;DHT22;2630;52.036;8.514;2023-03-01T02:00:42;-3.10;99.90
5222;DHT22;2630;52.036;8.514;2023-03-01T02:03:21;-3.00;99.90
5222;DHT22;2630;52.036;8.514;2023-03-01T02:08:22;-3.20;99.90
5222;DHT22;2630;52.036;8.514;2023-03-01T02:10:49;-3.20;99.90
5222;DHT22;2630;52.036;8.514;2023-03-01T02:13:15;-3.20;99.90
5222;DHT22;2630;52.036;8.514;2023-03-01T02:15:41;-3.20;99.90
5222;DHT22;2630;52.036;8.514;2023-03-01T02:18:10;-3.20;99.90
5222;DHT22;2630;52.036;8.514;2023-03-01T02:23:50;-3.30;99.90
5222;DHT22;2630;52.036;8.514;2023-03-01T02:26:45;-3.20;99.90
5222;DHT22;2630;52.036;8.514;2023-03-01T02:29:11;-3.30;99.90
5222;DHT22;2630;52.036;8.514;2023-03-01T02:31:37;-3.30;99.90
5222;DHT22;2630;52.036;8.514;2023-03-01T02:34:15;-3.40;99.90
5222;DHT22;2630;52.036;8.514;2023-03-01T02:36:45;-3.40;99.90
5222;DHT22;2630;52.036;8.514;2023-03-01T02:39:18;-3.30;99.90
5222;DHT22;2630;52.036;8.514;2023-03-01T02:41:51;-3.40;99.90
5222;DHT22;2630;52.036;8.514;2023-03-01T02:46:47;-3.40;99.90
5222;DHT22;2630;52.036;8.514;2023-03-01T02:49:22;-3.40;99.90
5222;DHT22;2630;52.036;8.514;2023-03-01T02:54:46;-3.50;99.90
5222;DHT22;2630;52.036;8.514;2023-03-01T02:57:13;-3.50;99.90
5222;DHT22;2630;52.036;8.514;2023-03-01T02:59:40;-3.50;99.90
5222;DHT22;2630;52.036;8.514;2023-03-01T03:02:19;-3.50;99.90
5222;DHT22;2630;52.036;8.514;2023-03-01T03:04:46;-3.60;99.90
5222;DHT22;2630;52.036;8.514;2023-03-01T03:07:12;-3.60;99.90
5222;DHT22;2630;52.036;8.514;2023-03-01T03:09:37;-3.50;99.90
5222;DHT22;2630;52.036;8.514;2023-03-01T03:12:03;-3.50;99.90
5222;DHT22;2630;52.036;8.514;2023-03-01T03:16:54;-3.60;99.90
5222;DHT22;2630;52.036;8.514;2023-03-01T03:19:20;-3.60;99.90
5222;DHT22;2630;52.036;8.514;2023-03-01T03:26:38;-3.60;99.90
5222;DHT22;2630;52.036;8.514;2023-03-01T03:33:55;-3.60;99.90
5222;DHT22;2630;52.036;8.514;2023-03-01T03:36:23;-3.60;99.90
5222;DHT22;2630;52.036;8.514;2023-03-01T03:38:49;-3.60;99.90
5222;DHT22;2630;52.036;8.514;2023-03-01T03:41:15;-3.70;99.90
5222;DHT22;2630;52.036;8.514;2023-03-01T03:43:43;-3.70;99.90
5222;DHT22;2630;52.036;8.514;2023-03-01T03:46:10;-3.70;99.90
5222;DHT22;2630;52.036;8.514;2023-03-01T03:48:38;-3.70;99.90
5222;DHT22;2630;52.036;8.514;2023-03-01T03:51:05;-3.70;99.90
5222;DHT22;2630;52.036;8.514;2023-03-01T03:53:32;-3.70;99.90
5222;DHT22;2630;52.036;8.514;2023-03-01T03:58:24;-3.60;99.90
5222;DHT22;2630;52.036;8.514;2023-03-01T04:00:53;-3.70;99.90
5222;DHT22;2630;52.036;8.514;2023-03-01T04:03:19;-3.70;99.90
5222;DHT22;2630;52.036;8.514;2023-03-01T04:05:46;-3.70;99.90
5222;DHT22;2630;52.036;8.514;2023-03-01T04:08:11;-3.80;99.90
5222;DHT22;2630;52.036;8.514;2023-03-01T04:10:43;-3.80;99.90
5222;DHT22;2630;52.036;8.514;2023-03-01T04:13:12;-3.80;99.90
5222;DHT22;2630;52.036;8.514;2023-03-01T04:15:39;-3.80;99.90
5222;DHT22;2630;52.036;8.514;2023-03-01T04:18:05;-3.80;99.90
5222;DHT22;2630;52.036;8.514;2023-03-01T04:20:33;-3.80;99.90
5222;DHT22;2630;52.036;8.514;2023-03-01T04:23:11;-3.80;99.90
5222;DHT22;2630;52.036;8.514;2023-03-01T04:25:53;-3.80;99.90
5222;DHT22;2630;52.036;8.514;2023-03-01T04:28:22;-3.80;99.90
5222;DHT22;2630;52.036;8.514;2023-03-01T04:30:50;-3.80;99.90
5222;DHT22;2630;52.036;8.514;2023-03-01T04:33:16;-3.80;99.90
5222;DHT22;2630;52.036;8.514;2023-03-01T04:35:42;-3.90;99.90
5222;DHT22;2630;52.036;8.514;2023-03-01T04:40:34;-3.90;99.90
5222;DHT22;2630;52.036;8.514;2023-03-01T04:43:00;-3.90;99.90
5222;DHT22;2630;52.036;8.514;2023-03-01T04:45:25;-4.00;99.90
5222;DHT22;2630;52.036;8.514;2023-03-01T04:47:51;-3.90;99.90
5222;DHT22;2630;52.036;8.514;2023-03-01T04:52:46;-3.90;99.90
5222;DHT22;2630;52.036;8.514;2023-03-01T04:57:38;-3.90;99.90
5222;DHT22;2630;52.036;8.514;2023-03-01T05:00:06;-4.00;99.90
5222;DHT22;2630;52.036;8.514;2023-03-01T05:05:22;-3.90;99.90
5222;DHT22;2630;52.036;8.514;2023-03-01T05:07:58;-3.90;99.90
5222;DHT22;2630;52.036;8.514;2023-03-01T05:10:25;-3.90;99.90
5222;DHT22;2630;52.036;8.514;2023-03-01T05:15:20;-4.00;99.90
5222;DHT22;2630;52.036;8.514;2023-03-01T05:17:51;-3.90;99.90
5222;DHT22;2630;52.036;8.514;2023-03-01T05:20:17;-4.00;99.90
5222;DHT22;2630;52.036;8.514;2023-03-01T05:22:43;-3.90;99.90
5222;DHT22;2630;52.036;8.514;2023-03-01T05:25:08;-3.90;99.90
5222;DHT22;2630;52.036;8.514;2023-03-01T05:27:35;-3.90;99.90
5222;DHT22;2630;52.036;8.514;2023-03-01T05:30:02;-3.90;99.90
5222;DHT22;2630;52.036;8.514;2023-03-01T05:35:05;-4.00;99.90
5222;DHT22;2630;52.036;8.514;2023-03-01T05:37:30;-4.00;99.90
5222;DHT22;2630;52.036;8.514;2023-03-01T05:39:56;-4.00;99.90
5222;DHT22;2630;52.036;8.514;2023-03-01T05:42:22;-4.00;99.90
5222;DHT22;2630;52.036;8.514;2023-03-01T05:44:47;-4.00;99.90
5222;DHT22;2630;52.036;8.514;2023-03-01T05:49:39;-4.00;99.90
5222;DHT22;2630;52.036;8.514;2023-03-01T05:54:30;-4.10;99.90
5222;DHT22;2630;52.036;8.514;2023-03-01T05:56:56;-4.10;99.90
5222;DHT22;2630;52.036;8.514;2023-03-01T05:59:22;-4.20;99.90
5222;DHT22;2630;52.036;8.514;2023-03-01T06:01:47;-4.20;99.90
5222;DHT22;2630;52.036;8.514;2023-03-01T06:04:13;-4.10;99.90
5222;DHT22;2630;52.036;8.514;2023-03-01T06:09:06;-4.20;99.90
5222;DHT22;2630;52.036;8.514;2023-03-01T06:11:34;-4.20;99.90
5222;DHT22;2630;52.036;8.514;2023-03-01T06:14:00;-4.20;99.90
5222;DHT22;2630;52.036;8.514;2023-03-01T06:16:25;-4.20;99.90
5222;DHT22;2630;52.036;8.514;2023-03-01T06:18:51;-4.20;99.90
5222;DHT22;2630;52.036;8.514;2023-03-01T06:23:42;-4.10;99.90
5222;DHT22;2630;52.036;8.514;2023-03-01T06:26:08;-4.10;99.90
5222;DHT22;2630;52.036;8.514;2023-03-01T06:28:34;-4.10;99.90
5222;DHT22;2630;52.036;8.514;2023-03-01T06:31:00;-4.10;99.90
5222;DHT22;2630;52.036;8.514;2023-03-01T06:35:55;-4.10;99.90
5222;DHT22;2630;52.036;8.514;2023-03-01T06:38:22;-4.20;99.90
5222;DHT22;2630;52.036;8.514;2023-03-01T06:40:52;-4.20;99.90
5222;DHT22;2630;52.036;8.514;2023-03-01T06:43:19;-4.00;99.90
5222;DHT22;2630;52.036;8.514;2023-03-01T06:48:11;-3.40;99.90
5222;DHT22;2630;52.036;8.514;2023-03-01T06:50:37;-3.10;99.90
5222;DHT22;2630;52.036;8.514;2023-03-01T06:53:03;-2.80;99.90
5222;DHT22;2630;52.036;8.514;2023-03-01T06:55:29;-2.60;99.90
5222;DHT22;2630;52.036;8.514;2023-03-01T06:57:58;-2.60;99.90
5222;DHT22;2630;52.036;8.514;2023-03-01T07:00:25;-1.90;99.90
5222;DHT22;2630;52.036;8.514;2023-03-01T07:02:51;-1.70;99.90
5222;DHT22;2630;52.036;8.514;2023-03-01T07:05:17;-1.50;99.90
5222;DHT22;2630;52.036;8.514;2023-03-01T07:07:43;-1.40;99.90
5222;DHT22;2630;52.036;8.514;2023-03-01T07:10:09;-1.40;99.90
5222;DHT22;2630;52.036;8.514;2023-03-01T07:12:35;-1.30;99.90
5222;DHT22;2630;52.036;8.514;2023-03-01T07:15:00;-1.40;99.90
5222;DHT22;2630;52.036;8.514;2023-03-01T07:17:26;-1.30;99.90
5222;DHT22;2630;52.036;8.514;2023-03-01T07:19:51;-1.20;99.90
5222;DHT22;2630;52.036;8.514;2023-03-01T07:24:43;-0.80;99.90
5222;DHT22;2630;52.036;8.514;2023-03-01T07:27:09;-0.30;99.90
5222;DHT22;2630;52.036;8.514;2023-03-01T07:29:35;0.40;99.90
5222;DHT22;2630;52.036;8.514;2023-03-01T07:32:05;1.00;99.90
5222;DHT22;2630;52.036;8.514;2023-03-01T07:34:32;1.90;99.90
5222;DHT22;2630;52.036;8.514;2023-03-01T07:36:58;2.80;99.90
5222;DHT22;2630;52.036;8.514;2023-03-01T07:39:23;3.50;99.90
5222;DHT22;2630;52.036;8.514;2023-03-01T07:41:49;4.10;99.90
5222;DHT22;2630;52.036;8.514;2023-03-01T07:44:15;4.00;99.90
5222;DHT22;2630;52.036;8.514;2023-03-01T07:46:42;4.60;99.90
5222;DHT22;2630;52.036;8.514;2023-03-01T07:49:08;5.40;99.90
5222;DHT22;2630;52.036;8.514;2023-03-01T07:51:34;6.10;99.90
5222;DHT22;2630;52.036;8.514;2023-03-01T07:53:59;7.20;99.90
5222;DHT22;2630;52.036;8.514;2023-03-01T07:56:25;8.20;99.90
5222;DHT22;2630;52.036;8.514;2023-03-01T07:58:50;8.90;99.90
5222;DHT22;2630;52.036;8.514;2023-03-01T08:01:19;9.30;99.90
5222;DHT22;2630;52.036;8.514;2023-03-01T08:03:44;9.70;99.90
5222;DHT22;2630;52.036;8.514;2023-03-01T08:06:12;10.60;99.90
5222;DHT22;2630;52.036;8.514;2023-03-01T08:08:37;11.50;99.90
5222;DHT22;2630;52.036;8.514;2023-03-01T08:11:05;12.40;98.10
5222;DHT22;2630;52.036;8.514;2023-03-01T08:13:31;13.10;95.30
5222;DHT22;2630;52.036;8.514;2023-03-01T08:16:05;13.60;93.70
5222;DHT22;2630;52.036;8.514;2023-03-01T08:18:31;14.00;91.70
5222;DHT22;2630;52.036;8.514;2023-03-01T08:21:02;14.50;90.20
5222;DHT22;2630;52.036;8.514;2023-03-01T08:23:28;15.10;85.40
5222;DHT22;2630;52.036;8.514;2023-03-01T08:25:55;15.10;86.20
5222;DHT22;2630;52.036;8.514;2023-03-01T08:28:20;15.50;82.80
5222;DHT22;2630;52.036;8.514;2023-03-01T08:30:46;15.10;79.20
5222;DHT22;2630;52.036;8.514;2023-03-01T08:33:11;15.30;75.60
5222;DHT22;2630;52.036;8.514;2023-03-01T08:35:37;15.20;72.30
5222;DHT22;2630;52.036;8.514;2023-03-01T08:38:02;14.40;71.00
5222;DHT22;2630;52.036;8.514;2023-03-01T08:40:28;13.60;70.90
5222;DHT22;2630;52.036;8.514;2023-03-01T08:42:53;12.90;73.70
5222;DHT22;2630;52.036;8.514;2023-03-01T08:45:20;12.50;76.00
5222;DHT22;2630;52.036;8.514;2023-03-01T08:47:46;12.00;75.20
5222;DHT22;2630;52.036;8.514;2023-03-01T08:52:38;11.20;78.70
5222;DHT22;2630;52.036;8.514;2023-03-01T08:55:05;11.10;79.30
5222;DHT22;2630;52.036;8.514;2023-03-01T08:57:30;10.40;77.70
5222;DHT22;2630;52.036;8.514;2023-03-01T08:59:56;10.30;79.30
5222;DHT22;2630;52.036;8.514;2023-03-01T09:02:22;9.70;80.90
5222;DHT22;2630;52.036;8.514;2023-03-01T09:07:13;9.10;82.50
5222;DHT22;2630;52.036;8.514;2023-03-01T09:09:39;8.90;84.90
5222;DHT22;2630;52.036;8.514;2023-03-01T09:12:05;8.70;86.20
5222;DHT22;2630;52.036;8.514;2023-03-01T09:14:31;8.70;87.00
5222;DHT22;2630;52.036;8.514;2023-03-01T09:16:57;7.60;89.20
5222;DHT22;2630;52.036;8.514;2023-03-01T09:19:23;7.30;90.80
5222;DHT22;2630;52.036;8.514;2023-03-01T09:24:20;7.00;92.30
5222;DHT22;2630;52.036;8.514;2023-03-01T09:26:46;7.10;93.10
5222;DHT22;2630;52.036;8.514;2023-03-01T09:31:39;6.70;93.60
5222;DHT22;2630;52.036;8.514;2023-03-01T09:36:31;6.50;95.70
5222;DHT22;2630;52.036;8.514;2023-03-01T09:38:58;6.50;94.20
5222;DHT22;2630;52.036;8.514;2023-03-01T09:41:48;6.30;94.50
5222;DHT22;2630;52.036;8.514;2023-03-01T09:47:03;5.90;94.60
5222;DHT22;2630;52.036;8.514;2023-03-01T09:52:19;5.20;95.50
5222;DHT22;2630;52.036;8.514;2023-03-01T09:54:47;5.20;97.30
5222;DHT22;2630;52.036;8.514;2023-03-01T09:58:06;5.20;98.50
5222;DHT22;2630;52.036;8.514;2023-03-01T10:00:30;5.20;97.50
5222;DHT22;2630;52.036;8.514;2023-03-01T10:03:17;5.10;97.00
5222;DHT22;2630;52.036;8.514;2023-03-01T10:06:18;5.10;97.30
5222;DHT22;2630;52.036;8.514;2023-03-01T10:08:59;5.10;96.80
5222;DHT22;2630;52.036;8.514;2023-03-01T10:11:36;5.20;97.50
5222;DHT22;2630;52.036;8.514;2023-03-01T10:16:51;5.30;96.60
5222;DHT22;2630;52.036;8.514;2023-03-01T10:22:00;6.10;96.20
5222;DHT22;2630;52.036;8.514;2023-03-01T10:24:32;6.90;96.50
5222;DHT22;2630;52.036;8.514;2023-03-01T10:27:06;7.80;95.10
5222;DHT22;2630;52.036;8.514;2023-03-01T10:30:02;8.70;93.10
5222;DHT22;2630;52.036;8.514;2023-03-01T10:32:31;9.80;90.00
5222;DHT22;2630;52.036;8.514;2023-03-01T10:34:57;10.40;87.90
5222;DHT22;2630;52.036;8.514;2023-03-01T10:37:22;10.80;84.10
5222;DHT22;2630;52.036;8.514;2023-03-01T10:40:09;11.10;85.10
5222;DHT22;2630;52.036;8.514;2023-03-01T10:42:40;11.90;83.00
5222;DHT22;2630;52.036;8.514;2023-03-01T10:48:21;13.40;73.60
5222;DHT22;2630;52.036;8.514;2023-03-01T10:51:13;13.40;70.60
5222;DHT22;2630;52.036;8.514;2023-03-01T10:53:40;13.10;71.50
5222;DHT22;2630;52.036;8.514;2023-03-01T10:56:13;13.20;72.10
5222;DHT22;2630;52.036;8.514;2023-03-01T10:58:41;12.50;70.00
5222;DHT22;2630;52.036;8.514;2023-03-01T11:04:12;12.20;67.90
5222;DHT22;2630;52.036;8.514;2023-03-01T11:06:40;11.60;69.30
5222;DHT22;2630;52.036;8.514;2023-03-01T11:09:21;11.50;70.30
5222;DHT22;2630;52.036;8.514;2023-03-01T11:11:52;11.10;70.60
5222;DHT22;2630;52.036;8.514;2023-03-01T11:14:24;11.10;70.30
5222;DHT22;2630;52.036;8.514;2023-03-01T11:17:05;10.90;71.20
5222;DHT22;2630;52.036;8.514;2023-03-01T11:19:37;11.10;70.40
5222;DHT22;2630;52.036;8.514;2023-03-01T11:24:46;11.50;71.50
5222;DHT22;2630;52.036;8.514;2023-03-01T11:27:26;11.60;70.30
5222;DHT22;2630;52.036;8.514;2023-03-01T11:29:57;11.20;67.20
5222;DHT22;2630;52.036;8.514;2023-03-01T11:32:27;10.60;67.50
5222;DHT22;2630;52.036;8.514;2023-03-01T11:35:00;10.50;68.60
5222;DHT22;2630;52.036;8.514;2023-03-01T11:37:40;10.50;69.10
5222;DHT22;2630;52.036;8.514;2023-03-01T11:40:29;10.40;68.70
5222;DHT22;2630;52.036;8.514;2023-03-01T11:43:23;10.00;66.90
5222;DHT22;2630;52.036;8.514;2023-03-01T11:48:30;10.00;71.70
5222;DHT22;2630;52.036;8.514;2023-03-01T11:51:03;10.00;72.70
5222;DHT22;2630;52.036;8.514;2023-03-01T11:56:34;10.20;71.10
5222;DHT22;2630;52.036;8.514;2023-03-01T12:07:53;9.50;72.40
5222;DHT22;2630;52.036;8.514;2023-03-01T12:10:48;9.00;73.10
5222;DHT22;2630;52.036;8.514;2023-03-01T12:19:20;8.30;73.50
5222;DHT22;2630;52.036;8.514;2023-03-01T12:33:00;7.90;74.90
5222;DHT22;2630;52.036;8.514;2023-03-01T12:35:52;7.70;76.90
5222;DHT22;2630;52.036;8.514;2023-03-01T12:38:33;7.30;72.80
5222;DHT22;2630;52.036;8.514;2023-03-01T12:41:19;7.00;73.50
5222;DHT22;2630;52.036;8.514;2023-03-01T12:44:01;7.00;72.60
5222;DHT22;2630;52.036;8.514;2023-03-01T12:51:33;8.00;72.40
5222;DHT22;2630;52.036;8.514;2023-03-01T12:54:15;8.20;72.10
5222;DHT22;2630;52.036;8.514;2023-03-01T12:56:41;8.40;71.90
5222;DHT22;2630;52.036;8.514;2023-03-01T12:59:15;8.50;70.10
5222;DHT22;2630;52.036;8.514;2023-03-01T13:02:12;8.40;69.80
5222;DHT22;2630;52.036;8.514;2023-03-01T13:08:00;8.30;72.50
5222;DHT22;2630;52.036;8.514;2023-03-01T13:10:48;8.20;72.40
5222;DHT22;2630;52.036;8.514;2023-03-01T13:13:18;8.10;72.50
5222;DHT22;2630;52.036;8.514;2023-03-01T13:15:44;8.10;71.50
5222;DHT22;2630;52.036;8.514;2023-03-01T13:20:48;7.90;72.80
5222;DHT22;2630;52.036;8.514;2023-03-01T13:31:04;7.80;72.70
5222;DHT22;2630;52.036;8.514;2023-03-01T13:35:57;7.70;70.80
5222;DHT22;2630;52.036;8.514;2023-03-01T13:38:46;7.50;71.20
5222;DHT22;2630;52.036;8.514;2023-03-01T13:41:17;7.30;72.80
5222;DHT22;2630;52.036;8.514;2023-03-01T13:44:22;7.20;72.20
5222;DHT22;2630;52.036;8.514;2023-03-01T13:47:16;7.20;72.50
5222;DHT22;2630;52.036;8.514;2023-03-01T13:49:48;7.20;72.20
5222;DHT22;2630;52.036;8.514;2023-03-01T13:55:00;7.20;73.00
5222;DHT22;2630;52.036;8.514;2023-03-01T13:59:59;7.20;71.70
5222;DHT22;2630;52.036;8.514;2023-03-01T14:02:24;7.30;71.80
5222;DHT22;2630;52.036;8.514;2023-03-01T14:05:00;7.40;71.90
5222;DHT22;2630;52.036;8.514;2023-03-01T14:07:26;7.50;69.60
5222;DHT22;2630;52.036;8.514;2023-03-01T14:10:05;7.50;70.70
5222;DHT22;2630;52.036;8.514;2023-03-01T14:12:59;7.50;70.30
5222;DHT22;2630;52.036;8.514;2023-03-01T14:15:40;7.30;68.30
5222;DHT22;2630;52.036;8.514;2023-03-01T14:20:45;7.40;69.70
5222;DHT22;2630;52.036;8.514;2023-03-01T14:23:19;7.40;69.50
5222;DHT22;2630;52.036;8.514;2023-03-01T14:25:48;7.40;70.50
5222;DHT22;2630;52.036;8.514;2023-03-01T14:28:21;7.50;72.20
5222;DHT22;2630;52.036;8.514;2023-03-01T14:30:50;7.60;70.40
5222;DHT22;2630;52.036;8.514;2023-03-01T14:35:58;7.80;68.50
5222;DHT22;2630;52.036;8.514;2023-03-01T14:40:58;8.20;68.20
5222;DHT22;2630;52.036;8.514;2023-03-01T14:43:24;8.70;68.70
5222;DHT22;2630;52.036;8.514;2023-03-01T14:45:53;8.90;65.60
5222;DHT22;2630;52.036;8.514;2023-03-01T14:48:19;8.90;65.20
5222;DHT22;2630;52.036;8.514;2023-03-01T14:50:45;8.90;66.30
5222;DHT22;2630;52.036;8.514;2023-03-01T14:53:24;9.10;66.10
5222;DHT22;2630;52.036;8.514;2023-03-01T14:55:53;9.10;66.00
5222;DHT22;2630;52.036;8.514;2023-03-01T14:58:22;9.10;65.80
5222;DHT22;2630;52.036;8.514;2023-03-01T15:01:00;8.90;65.80
5222;DHT22;2630;52.036;8.514;2023-03-01T15:03:55;8.50;64.70
5222;DHT22;2630;52.036;8.514;2023-03-01T15:06:23;8.10;65.80
5222;DHT22;2630;52.036;8.514;2023-03-01T15:08:51;7.80;66.30
5222;DHT22;2630;52.036;8.514;2023-03-01T15:11:22;7.60;66.50
5222;DHT22;2630;52.036;8.514;2023-03-01T15:13:50;7.50;67.60
5222;DHT22;2630;52.036;8.514;2023-03-01T15:16:21;7.30;68.70
5222;DHT22;2630;52.036;8.514;2023-03-01T15:18:59;7.10;69.70
5222;DHT22;2630;52.036;8.514;2023-03-01T15:21:29;7.00;69.80
5222;DHT22;2630;52.036;8.514;2023-03-01T15:24:25;7.00;69.50
5222;DHT22;2630;52.036;8.514;2023-03-01T15:26:57;6.70;70.70
5222;DHT22;2630;52.036;8.514;2023-03-01T15:29:29;6.70;71.00
5222;DHT22;2630;52.036;8.514;2023-03-01T15:32:00;6.60;71.60
5222;DHT22;2630;52.036;8.514;2023-03-01T15:34:33;6.60;72.90
5222;DHT22;2630;52.036;8.514;2023-03-01T15:37:01;6.60;73.00
5222;DHT22;2630;52.036;8.514;2023-03-01T15:42:36;6.40;74.50
5222;DHT22;2630;52.036;8.514;2023-03-01T15:45:28;6.30;74.80
5222;DHT22;2630;52.036;8.514;2023-03-01T15:47:59;6.20;75.40
5222;DHT22;2630;52.036;8.514;2023-03-01T15:50:31;6.20;75.90
5222;DHT22;2630;52.036;8.514;2023-03-01T15:52:59;6.10;76.00
5222;DHT22;2630;52.036;8.514;2023-03-01T15:55:30;6.10;76.70
5222;DHT22;2630;52.036;8.514;2023-03-01T15:58:04;6.00;77.60
5222;DHT22;2630;52.036;8.514;2023-03-01T16:02:56;5.90;78.00
5222;DHT22;2630;52.036;8.514;2023-03-01T16:05:25;5.90;78.10
5222;DHT22;2630;52.036;8.514;2023-03-01T16:07:52;5.90;78.60
5222;DHT22;2630;52.036;8.514;2023-03-01T16:10:18;5.80;79.50
5222;DHT22;2630;52.036;8.514;2023-03-01T16:12:44;5.80;79.90
5222;DHT22;2630;52.036;8.514;2023-03-01T16:15:19;5.80;80.40
5222;DHT22;2630;52.036;8.514;2023-03-01T16:17:45;5.80;81.20
5222;DHT22;2630;52.036;8.514;2023-03-01T16:20:11;5.70;81.00
5222;DHT22;2630;52.036;8.514;2023-03-01T16:22:36;5.70;81.20
5222;DHT22;2630;52.036;8.514;2023-03-01T16:25:02;5.50;81.60
5222;DHT22;2630;52.036;8.514;2023-03-01T16:27:28;5.50;82.50
5222;DHT22;2630;52.036;8.514;2023-03-01T16:29:54;5.50;83.90
5222;DHT22;2630;52.036;8.514;2023-03-01T16:32:19;5.40;84.60
5222;DHT22;2630;52.036;8.514;2023-03-01T16:34:45;5.30;85.60
5222;DHT22;2630;52.036;8.514;2023-03-01T16:42:06;5.10;87.10
5222;DHT22;2630;52.036;8.514;2023-03-01T16:44:32;5.10;87.60
5222;DHT22;2630;52.036;8.514;2023-03-01T16:46:57;5.10;88.40
5222;DHT22;2630;52.036;8.514;2023-03-01T16:49:23;5.00;89.00
5222;DHT22;2630;52.036;8.514;2023-03-01T16:54:14;4.90;90.30
5222;DHT22;2630;52.036;8.514;2023-03-01T16:59:06;4.80;91.10
5222;DHT22;2630;52.036;8.514;2023-03-01T17:04:00;4.70;91.80
5222;DHT22;2630;52.036;8.514;2023-03-01T17:06:26;4.60;92.50
5222;DHT22;2630;52.036;8.514;2023-03-01T17:11:19;4.50;93.70
5222;DHT22;2630;52.036;8.514;2023-03-01T17:13:46;4.40;95.00
5222;DHT22;2630;52.036;8.514;2023-03-01T17:16:14;4.40;94.90
5222;DHT22;2630;52.036;8.514;2023-03-01T17:18:41;4.30;95.20
5222;DHT22;2630;52.036;8.514;2023-03-01T17:21:07;4.20;95.50
5222;DHT22;2630;52.036;8.514;2023-03-01T17:26:00;4.00;96.50
5222;DHT22;2630;52.036;8.514;2023-03-01T17:28:27;3.90;97.40
5222;DHT22;2630;52.036;8.514;2023-03-01T17:30:54;3.80;97.90
5222;DHT22;2630;52.036;8.514;2023-03-01T17:33:20;3.80;98.50
5222;DHT22;2630;52.036;8.514;2023-03-01T17:35:46;3.70;99.50
5222;DHT22;2630;52.036;8.514;2023-03-01T17:38:13;3.70;99.80
5222;DHT22;2630;52.036;8.514;2023-03-01T17:40:40;3.70;99.90
5222;DHT22;2630;52.036;8.514;2023-03-01T17:43:07;3.60;99.90
5222;DHT22;2630;52.036;8.514;2023-03-01T17:47:59;3.60;99.90
5222;DHT22;2630;52.036;8.514;2023-03-01T17:50:25;3.60;99.90
5222;DHT22;2630;52.036;8.514;2023-03-01T17:52:50;3.50;99.90
5222;DHT22;2630;52.036;8.514;2023-03-01T17:57:42;3.50;99.90
5222;DHT22;2630;52.036;8.514;2023-03-01T18:00:11;3.40;99.90
5222;DHT22;2630;52.036;8.514;2023-03-01T18:02:38;3.40;99.90
5222;DHT22;2630;52.036;8.514;2023-03-01T18:05:03;3.30;99.90
5222;DHT22;2630;52.036;8.514;2023-03-01T18:07:29;3.20;99.90
5222;DHT22;2630;52.036;8.514;2023-03-01T18:09:55;3.20;99.90
5222;DHT22;2630;52.036;8.514;2023-03-01T18:12:20;3.10;99.90
5222;DHT22;2630;52.036;8.514;2023-03-01T18:14:47;3.10;99.90
5222;DHT22;2630;52.036;8.514;2023-03-01T18:17:21;3.00;99.90
5222;DHT22;2630;52.036;8.514;2023-03-01T18:19:47;3.00;99.90
5222;DHT22;2630;52.036;8.514;2023-03-01T18:22:13;2.90;99.90
5222;DHT22;2630;52.036;8.514;2023-03-01T18:27:05;2.90;99.90
5222;DHT22;2630;52.036;8.514;2023-03-01T18:29:31;2.90;99.90
5222;DHT22;2630;52.036;8.514;2023-03-01T18:31:57;2.80;99.90
5222;DHT22;2630;52.036;8.514;2023-03-01T18:34:23;2.80;99.90
5222;DHT22;2630;52.036;8.514;2023-03-01T18:36:48;2.70;99.90
5222;DHT22;2630;52.036;8.514;2023-03-01T18:39:16;2.70;99.90
5222;DHT22;2630;52.036;8.514;2023-03-01T18:41:42;2.60;99.90
5222;DHT22;2630;52.036;8.514;2023-03-01T18:44:09;2.60;99.90
5222;DHT22;2630;52.036;8.514;2023-03-01T18:46:36;2.50;99.90
5222;DHT22;2630;52.036;8.514;2023-03-01T18:49:04;2.50;99.90
5222;DHT22;2630;52.036;8.514;2023-03-01T18:51:30;2.50;99.90
5222;DHT22;2630;52.036;8.514;2023-03-01T18:53:56;2.50;99.90
5222;DHT22;2630;52.036;8.514;2023-03-01T18:56:27;2.50;99.90
5222;DHT22;2630;52.036;8.514;2023-03-01T18:58:53;2.50;99.90
5222;DHT22;2630;52.036;8.514;2023-03-01T19:01:23;2.40;99.90
5222;DHT22;2630;52.036;8.514;2023-03-01T19:03:49;2.40;99.90
5222;DHT22;2630;52.036;8.514;2023-03-01T19:06:15;2.40;99.90
5222;DHT22;2630;52.036;8.514;2023-03-01T19:08:41;2.40;99.90
5222;DHT22;2630;52.036;8.514;2023-03-01T19:11:09;2.20;99.90
5222;DHT22;2630;52.036;8.514;2023-03-01T19:16:24;2.40;99.90
5222;DHT22;2630;52.036;8.514;2023-03-01T19:18:58;2.40;99.90
5222;DHT22;2630;52.036;8.514;2023-03-01T19:21:26;2.40;99.90
5222;DHT22;2630;52.036;8.514;2023-03-01T19:23:53;2.40;99.90
5222;DHT22;2630;52.036;8.514;2023-03-01T19:26:22;2.30;99.90
5222;DHT22;2630;52.036;8.514;2023-03-01T19:28:48;2.30;99.90
5222;DHT22;2630;52.036;8.514;2023-03-01T19:31:17;2.30;99.90
5222;DHT22;2630;52.036;8.514;2023-03-01T19:33:43;2.30;99.90
5222;DHT22;2630;52.036;8.514;2023-03-01T19:36:10;2.30;99.90